createdAt,value
2017-06-23T00:01:21.655Z,11.80
2017-06-23T00:03:49.208Z,12.77
2017-06-23T00:06:16.721Z,12.63
2017-06-23T00:08:44.570Z,12.03
2017-06-23T00:11:12.120Z,11.30
2017-06-23T00:13:39.658Z,13.13
2017-06-23T00:16:07.553Z,11.60
2017-06-23T00:18:35.064Z,12.40
2017-06-23T00:21:03.362Z,14.23
2017-06-23T00:23:31.255Z,13.60
2017-06-23T00:25:58.770Z,13.27
2017-06-23T00:28:26.332Z,14.10
2017-06-23T00:30:54.920Z,13.60
2017-06-23T00:33:23.247Z,14.17
2017-06-23T00:35:50.754Z,15.37
2017-06-23T00:38:19.402Z,14.30
2017-06-23T00:40:46.937Z,13.63
2017-06-23T00:43:14.445Z,13.70
2017-06-23T00:45:42.398Z,13.60
2017-06-23T00:48:09.916Z,13.60
2017-06-23T00:50:37.439Z,14.23
2017-06-23T00:53:06.067Z,13.00
2017-06-23T00:55:33.598Z,14.43
2017-06-23T00:58:01.886Z,13.60
2017-06-23T01:00:29.720Z,13.73
2017-06-23T01:02:57.239Z,14.77
2017-06-23T01:05:24.761Z,13.60
2017-06-23T01:07:53.404Z,13.60
2017-06-23T01:10:20.920Z,14.20
2017-06-23T01:12:48.466Z,13.53
2017-06-23T01:15:17.063Z,11.90
2017-06-23T01:17:44.569Z,13.27
2017-06-23T01:20:12.110Z,12.70
2017-06-23T01:22:39.936Z,12.43
2017-06-23T01:25:07.444Z,14.00
2017-06-23T01:27:34.966Z,12.73
2017-06-23T01:30:02.867Z,12.43
2017-06-23T01:32:30.419Z,12.17
2017-06-23T01:34:57.965Z,13.43
2017-06-23T01:37:25.861Z,11.20
2017-06-23T01:39:53.378Z,10.60
2017-06-23T01:42:21.659Z,8.93
2017-06-23T01:44:50.288Z,11.00
2017-06-23T01:47:17.813Z,10.73
2017-06-23T01:49:45.338Z,9.60
2017-06-23T01:52:13.282Z,11.97
2017-06-23T01:54:40.811Z,10.50
2017-06-23T01:57:08.334Z,9.73
2017-06-23T01:59:36.254Z,11.20
2017-06-23T02:02:03.767Z,12.17
2017-06-23T02:04:31.319Z,10.80
2017-06-23T02:06:59.262Z,11.03
2017-06-23T02:09:26.781Z,11.17
2017-06-23T02:11:54.288Z,10.60
2017-06-23T02:14:22.232Z,10.10
2017-06-23T02:16:49.759Z,10.63
2017-06-23T02:19:18.037Z,10.77
2017-06-23T02:21:45.879Z,11.60
2017-06-23T02:24:13.414Z,10.90
2017-06-23T02:26:40.949Z,11.30
2017-06-23T02:29:08.777Z,11.73
2017-06-23T02:31:36.298Z,11.53
2017-06-23T02:34:03.808Z,14.03
2017-06-23T02:36:31.695Z,12.37
2017-06-23T02:38:59.210Z,13.23
2017-06-23T02:41:26.736Z,10.40
2017-06-23T02:43:54.551Z,9.87
2017-06-23T02:46:22.061Z,7.97
2017-06-23T02:48:49.579Z,10.30
2017-06-23T02:51:18.194Z,8.17
2017-06-23T02:53:45.707Z,8.90
2017-06-23T02:56:13.217Z,8.83
2017-06-23T02:58:41.045Z,9.80
2017-06-23T03:01:09.339Z,9.17
2017-06-23T03:03:36.853Z,10.17
2017-06-23T03:06:04.811Z,9.87
2017-06-23T03:08:32.324Z,11.97
2017-06-23T03:10:59.838Z,11.97
2017-06-23T03:13:27.771Z,12.47
2017-06-23T03:15:55.298Z,13.27
2017-06-23T03:18:23.589Z,15.90
2017-06-23T03:20:51.414Z,15.87
2017-06-23T03:23:18.939Z,15.40
2017-06-23T03:25:46.477Z,16.50
2017-06-23T03:28:14.308Z,15.13
2017-06-23T03:30:41.834Z,16.27
2017-06-23T03:33:09.360Z,16.17
2017-06-23T03:35:37.173Z,17.57
2017-06-23T03:38:04.711Z,17.03
2017-06-23T03:40:32.243Z,17.10
2017-06-23T03:43:00.867Z,17.00
2017-06-23T03:45:28.398Z,16.67
2017-06-23T03:47:55.938Z,16.77
2017-06-23T03:56:00.542Z,19.63
2017-06-23T03:58:28.104Z,18.87
2017-06-23T04:00:55.699Z,19.03
2017-06-23T04:03:23.546Z,17.40
2017-06-23T04:05:51.089Z,18.30
2017-06-23T04:08:18.593Z,18.43
2017-06-23T04:10:46.440Z,18.40
2017-06-23T04:13:13.961Z,18.03
2017-06-23T04:15:41.475Z,18.17
2017-06-23T04:18:09.296Z,18.37
2017-06-23T04:20:36.811Z,18.20
2017-06-23T04:23:04.338Z,18.60
2017-06-23T04:25:32.133Z,16.90
2017-06-23T04:27:59.640Z,19.67
2017-06-23T04:30:27.164Z,18.67
2017-06-23T04:32:55.808Z,19.40
2017-06-23T04:35:23.340Z,19.60
2017-06-23T04:37:50.864Z,20.87
2017-06-23T04:40:19.488Z,20.33
2017-06-23T04:42:47.002Z,19.13
2017-06-23T04:45:14.533Z,20.87
2017-06-23T04:47:42.351Z,20.40
2017-06-23T04:50:10.637Z,20.80
2017-06-23T04:52:38.176Z,19.70
2017-06-23T04:55:06.914Z,20.17
2017-06-23T04:57:34.427Z,20.10
2017-06-23T05:00:02.716Z,20.30
2017-06-23T05:02:30.561Z,21.23
2017-06-23T05:04:58.176Z,21.90
2017-06-23T05:07:25.680Z,20.10
2017-06-23T05:09:53.526Z,20.43
2017-06-23T05:12:21.158Z,20.13
2017-06-23T05:14:48.713Z,21.10
2017-06-23T05:17:16.518Z,20.03
2017-06-23T05:19:44.045Z,21.23
2017-06-23T05:22:11.553Z,21.60
2017-06-23T05:24:39.346Z,22.47
2017-06-23T05:27:09.961Z,21.60
2017-06-23T05:29:43.979Z,20.40
2017-06-23T05:32:17.638Z,21.40
2017-06-23T05:34:45.617Z,20.63
2017-06-23T05:37:20.138Z,23.17
2017-06-23T05:42:49.425Z,20.83
2017-06-23T05:45:22.834Z,22.30
2017-06-23T05:47:56.891Z,19.97
2017-06-23T05:50:25.835Z,20.97
2017-06-23T05:52:59.837Z,20.83
2017-06-23T05:55:27.377Z,20.57
2017-06-23T05:57:54.904Z,22.17
2017-06-23T06:00:22.724Z,21.60
2017-06-23T06:02:50.256Z,19.90
2017-06-23T06:05:18.536Z,20.03
2017-06-23T06:07:54.625Z,21.37
2017-06-23T06:10:29.807Z,22.57
2017-06-23T06:13:01.362Z,20.50
2017-06-23T06:15:32.214Z,22.57
2017-06-23T06:18:07.066Z,21.57
2017-06-23T06:20:38.522Z,21.20
2017-06-23T06:23:12.698Z,20.57
2017-06-23T06:25:40.229Z,22.90
2017-06-23T06:28:11.187Z,20.80
2017-06-23T06:31:02.556Z,21.20
2017-06-23T06:33:38.539Z,20.07
2017-06-23T06:36:19.220Z,21.47
2017-06-23T06:38:48.366Z,19.07
2017-06-23T06:41:19.611Z,19.90
2017-06-23T06:43:59.580Z,20.30
2017-06-23T06:46:36.994Z,20.00
2017-06-23T06:49:14.469Z,20.37
2017-06-23T06:51:46.125Z,19.80
2017-06-23T06:54:23.275Z,18.33
2017-06-23T06:56:58.376Z,18.40
2017-06-23T06:59:32.067Z,19.43
2017-06-23T07:02:05.644Z,19.67
2017-06-23T07:04:40.448Z,19.77
2017-06-23T07:07:14.818Z,17.67
2017-06-23T07:09:50.515Z,18.43
2017-06-23T07:12:22.019Z,18.30
2017-06-23T07:14:59.448Z,18.53
2017-06-23T07:17:36.880Z,18.10
2017-06-23T07:20:17.134Z,18.03
2017-06-23T07:22:48.321Z,18.43
2017-06-23T07:25:21.741Z,18.60
2017-06-23T07:27:56.742Z,17.60
2017-06-23T07:30:25.769Z,17.73
2017-06-23T07:32:56.919Z,18.03
2017-06-23T07:35:27.663Z,18.57
2017-06-23T07:37:59.117Z,19.33
2017-06-23T07:40:34.463Z,18.40
2017-06-23T07:43:06.121Z,17.77
2017-06-23T07:45:36.867Z,18.63
2017-06-23T07:48:11.802Z,18.63
2017-06-23T07:50:45.568Z,17.87
2017-06-23T07:53:19.962Z,19.70
2017-06-23T07:55:54.630Z,18.93
2017-06-23T07:58:29.505Z,18.00
2017-06-23T08:01:02.694Z,18.50
2017-06-23T08:03:34.131Z,19.30
2017-06-23T08:06:07.816Z,18.47
2017-06-23T08:08:39.311Z,17.43
2017-06-23T08:11:12.790Z,17.93
2017-06-23T08:13:42.335Z,18.87
2017-06-23T08:16:17.683Z,18.10
2017-06-23T08:18:51.851Z,18.20
2017-06-23T08:21:27.303Z,19.17
2017-06-23T08:24:02.513Z,17.80
2017-06-23T08:26:36.556Z,19.27
2017-06-23T08:29:10.973Z,18.33
2017-06-23T08:31:44.565Z,17.90
2017-06-23T08:34:18.039Z,18.80
2017-06-23T08:36:51.820Z,20.13
2017-06-23T08:39:22.569Z,19.70
2017-06-23T08:41:55.845Z,18.73
2017-06-23T08:44:30.125Z,18.80
2017-06-23T08:47:16.956Z,19.20
2017-06-23T08:49:50.740Z,19.23
2017-06-23T08:52:21.787Z,17.70
2017-06-23T08:54:59.852Z,19.50
2017-06-23T08:57:37.427Z,19.90
2017-06-23T09:00:13.108Z,17.70
2017-06-23T09:02:50.947Z,17.33
2017-06-23T09:05:27.167Z,17.97
2017-06-23T09:08:02.919Z,17.07
2017-06-23T09:10:37.271Z,16.60
2017-06-23T09:13:11.818Z,16.70
2017-06-23T09:15:43.399Z,17.40
2017-06-23T09:18:20.764Z,16.27
2017-06-23T09:20:52.110Z,14.93
2017-06-23T09:23:32.153Z,15.87
2017-06-23T09:26:07.551Z,15.53
2017-06-23T09:28:42.430Z,14.07
2017-06-23T09:31:17.722Z,13.30
2017-06-23T09:33:53.678Z,14.27
2017-06-23T09:36:31.977Z,13.60
2017-06-23T09:39:06.691Z,12.30
2017-06-23T09:41:46.922Z,12.10
2017-06-23T09:44:21.647Z,12.20
2017-06-23T09:46:56.015Z,13.07
2017-06-23T09:49:30.711Z,12.63
2017-06-23T09:52:04.211Z,11.13
2017-06-23T09:54:42.134Z,13.47
2017-06-23T09:57:17.264Z,13.37
2017-06-23T09:59:55.219Z,11.67
2017-06-23T10:02:26.645Z,13.40
2017-06-23T10:05:04.118Z,13.40
2017-06-23T10:07:40.192Z,13.57
2017-06-23T10:10:14.882Z,13.50
2017-06-23T10:12:50.192Z,13.50
2017-06-23T10:15:26.084Z,13.20
2017-06-23T10:18:06.221Z,13.60
2017-06-23T10:20:46.060Z,12.50
2017-06-23T10:23:22.370Z,14.73
2017-06-23T10:25:53.232Z,13.87
2017-06-23T10:28:28.291Z,14.70
2017-06-23T10:30:59.445Z,15.83
2017-06-23T10:33:34.544Z,13.87
2017-06-23T10:36:12.275Z,14.13
2017-06-23T10:38:46.442Z,12.73
2017-06-23T10:41:17.580Z,14.23
2017-06-23T10:43:52.398Z,13.47
2017-06-23T10:46:25.998Z,14.07
2017-06-23T10:49:01.211Z,13.20
2017-06-23T10:51:34.667Z,12.10
2017-06-23T10:54:15.686Z,13.37
2017-06-23T10:56:53.649Z,13.83
2017-06-23T10:59:28.071Z,13.20
2017-06-23T11:02:03.864Z,12.47
2017-06-23T11:04:42.208Z,12.40
2017-06-23T11:07:19.746Z,11.53
2017-06-23T11:09:55.945Z,12.10
2017-06-23T11:12:27.073Z,12.30
2017-06-23T11:15:02.259Z,11.77
2017-06-23T11:17:37.714Z,11.70
2017-06-23T11:20:12.167Z,10.93
2017-06-23T11:22:47.590Z,11.27
2017-06-23T11:25:25.774Z,12.70
2017-06-23T11:28:00.261Z,11.20
2017-06-23T11:30:36.295Z,11.30
2017-06-23T11:33:10.372Z,19.87
2017-06-23T11:35:51.232Z,10.30
2017-06-23T11:38:22.270Z,10.83
2017-06-23T11:40:56.263Z,13.70
2017-06-23T11:43:30.883Z,22.87
2017-06-23T11:46:06.109Z,20.33
2017-06-23T11:48:37.068Z,32.97
2017-06-23T11:51:11.270Z,75.70
2017-06-23T11:53:46.855Z,12.00
2017-06-23T11:56:25.148Z,11.47
2017-06-23T11:58:59.713Z,9.27
2017-06-23T12:01:33.934Z,12.60
2017-06-23T12:04:11.903Z,12.20
2017-06-23T12:06:46.426Z,8.23
2017-06-23T12:09:21.863Z,6.80
2017-06-23T12:11:55.937Z,7.43
2017-06-23T12:17:25.011Z,7.27
2017-06-23T12:20:02.388Z,7.30
2017-06-23T12:22:33.628Z,8.27
2017-06-23T12:25:18.034Z,8.23
2017-06-23T12:28:03.200Z,8.70
2017-06-23T12:30:34.394Z,8.67
2017-06-23T12:38:48.384Z,12.77
2017-06-23T12:41:15.889Z,12.70
2017-06-23T12:43:43.472Z,8.10
2017-06-23T12:46:11.358Z,8.53
2017-06-23T12:48:40.381Z,8.33
2017-06-23T12:51:07.912Z,9.57
2017-06-23T12:53:39.112Z,9.17
2017-06-23T12:56:09.540Z,8.83
2017-06-23T12:58:50.991Z,8.73
2017-06-23T13:04:28.884Z,6.97
2017-06-23T13:06:59.705Z,7.57
2017-06-23T13:09:31.110Z,7.97
2017-06-23T13:12:02.319Z,8.30
2017-06-23T13:14:39.997Z,7.70
2017-06-23T13:17:17.666Z,7.00
2017-06-23T13:19:54.022Z,7.53
2017-06-23T13:22:25.056Z,8.20
2017-06-23T13:24:58.841Z,7.23
2017-06-23T13:27:32.455Z,7.57
2017-06-23T13:30:04.067Z,7.73
2017-06-23T13:32:34.810Z,6.33
2017-06-23T13:35:09.632Z,7.20
2017-06-23T13:37:40.652Z,7.07
2017-06-23T13:40:12.522Z,7.47
2017-06-23T13:42:40.819Z,6.80
2017-06-23T13:45:08.361Z,7.03
2017-06-23T13:47:36.990Z,6.40
2017-06-23T13:50:04.498Z,5.83
2017-06-23T13:52:32.801Z,6.47
2017-06-23T13:55:00.618Z,5.40
2017-06-23T13:57:28.129Z,4.47
2017-06-23T13:59:55.643Z,4.73
2017-06-23T14:02:23.517Z,4.57
2017-06-23T14:04:51.018Z,5.10
2017-06-23T14:07:18.556Z,5.50
2017-06-23T14:09:46.499Z,5.87
2017-06-23T14:12:14.010Z,6.63
2017-06-23T14:14:41.523Z,6.23
2017-06-23T14:17:09.362Z,6.80
2017-06-23T14:19:36.874Z,5.70
2017-06-23T14:22:05.149Z,7.13
2017-06-23T14:24:33.716Z,8.10
2017-06-23T14:27:01.228Z,6.87
2017-06-23T14:29:28.764Z,6.83
2017-06-23T14:31:56.770Z,6.77
2017-06-23T14:34:24.349Z,6.53
2017-06-23T14:36:51.868Z,7.10
2017-06-23T14:39:19.744Z,6.97
2017-06-23T14:41:47.252Z,6.83
2017-06-23T14:44:14.757Z,5.73
2017-06-23T14:46:42.551Z,5.80
2017-06-23T14:49:10.085Z,5.10
2017-06-23T14:51:37.608Z,5.47
2017-06-23T14:54:05.418Z,5.40
2017-06-23T14:56:32.935Z,5.83
2017-06-23T14:59:00.457Z,5.40
2017-06-23T15:01:28.315Z,5.43
2017-06-23T15:03:55.866Z,4.87
2017-06-23T15:06:23.380Z,5.13
2017-06-23T15:08:51.295Z,5.73
2017-06-23T15:11:18.841Z,5.30
2017-06-23T15:13:46.358Z,6.17
2017-06-23T15:16:15.020Z,5.80
2017-06-23T15:18:48.657Z,5.10
2017-06-23T15:21:16.494Z,5.53
2017-06-23T15:23:56.549Z,5.70
2017-06-23T15:26:24.364Z,5.63
2017-06-23T15:28:51.882Z,6.57
2017-06-23T15:31:19.423Z,5.43
2017-06-23T15:33:47.286Z,5.60
2017-06-23T15:36:15.611Z,5.50
2017-06-23T15:38:43.127Z,5.07
2017-06-23T15:41:10.971Z,5.70
2017-06-23T15:46:38.071Z,5.50
2017-06-23T15:49:15.449Z,5.80
2017-06-23T15:51:49.291Z,5.90
2017-06-23T15:54:16.820Z,6.80
2017-06-23T15:56:44.356Z,6.47
2017-06-23T15:59:19.587Z,5.30
2017-06-23T16:01:50.620Z,5.70
2017-06-23T16:04:26.448Z,6.07
2017-06-23T16:06:53.958Z,6.67
2017-06-23T16:09:21.478Z,7.27
2017-06-23T16:11:49.303Z,7.17
2017-06-23T16:14:16.836Z,7.20
2017-06-23T16:16:44.374Z,7.50
2017-06-23T16:19:12.193Z,6.60
2017-06-23T16:21:39.730Z,8.17
2017-06-23T16:24:26.914Z,8.33
2017-06-23T16:26:57.443Z,7.90
2017-06-23T16:29:28.587Z,8.43
2017-06-23T16:31:59.442Z,9.77
2017-06-23T16:34:35.201Z,8.73
2017-06-23T16:37:06.352Z,9.47
2017-06-23T16:39:44.503Z,9.03
2017-06-23T16:42:15.625Z,9.17
2017-06-23T16:44:43.162Z,10.13
2017-06-23T16:47:11.781Z,10.27
2017-06-23T16:49:39.344Z,9.60
2017-06-23T16:52:06.880Z,9.27
2017-06-23T16:54:34.702Z,10.10
2017-06-23T16:57:02.250Z,9.87
2017-06-23T16:59:29.784Z,10.67
2017-06-23T17:01:57.661Z,10.60
2017-06-23T17:04:25.180Z,9.30
2017-06-23T17:06:53.489Z,11.00
2017-06-23T17:09:21.367Z,9.80
2017-06-23T17:11:48.909Z,10.23
2017-06-23T17:14:16.423Z,10.20
2017-06-23T17:16:44.385Z,10.87
2017-06-23T17:19:11.920Z,10.70
2017-06-23T17:21:39.430Z,11.37
2017-06-23T17:24:07.266Z,11.07
2017-06-23T17:26:34.834Z,12.07
2017-06-23T17:29:02.362Z,10.87
2017-06-23T17:31:30.230Z,13.00
2017-06-23T17:33:57.774Z,11.60
2017-06-23T17:36:25.294Z,12.40
2017-06-23T17:38:53.082Z,12.07
2017-06-23T17:41:20.625Z,11.47
2017-06-23T17:43:48.909Z,12.20
2017-06-23T17:46:16.905Z,13.10
2017-06-23T17:48:44.437Z,12.67
2017-06-23T17:51:12.741Z,13.10
2017-06-23T17:53:40.634Z,12.80
2017-06-23T17:56:08.158Z,12.80
2017-06-23T17:58:35.698Z,12.80
2017-06-23T18:01:03.613Z,12.67
2017-06-23T18:03:31.165Z,13.80
2017-06-23T18:05:58.977Z,12.70
2017-06-23T18:08:27.501Z,14.13
2017-06-23T18:10:55.037Z,13.83
2017-06-23T18:13:24.220Z,13.53
2017-06-23T18:15:52.628Z,14.60
2017-06-23T18:18:20.471Z,13.20
2017-06-23T18:20:48.567Z,13.47
2017-06-23T18:23:16.699Z,14.07
2017-06-23T18:25:45.051Z,14.77
2017-06-23T18:28:13.501Z,13.87
2017-06-23T18:30:42.095Z,14.83
2017-06-23T18:33:09.620Z,15.20
2017-06-23T18:35:37.145Z,14.90
2017-06-23T18:38:05.029Z,16.30
2017-06-23T18:40:32.567Z,15.33
2017-06-23T18:43:00.109Z,15.57
2017-06-23T18:45:27.920Z,16.27
2017-06-23T18:47:55.453Z,15.20
2017-06-23T18:50:22.988Z,15.13
2017-06-23T18:52:51.704Z,16.53
2017-06-23T18:55:19.233Z,17.50
2017-06-23T18:57:46.767Z,17.20
2017-06-23T19:00:15.205Z,16.83
2017-06-23T19:02:42.724Z,17.93
2017-06-23T19:05:10.299Z,17.20
2017-06-23T19:07:38.110Z,17.80
2017-06-23T19:10:05.666Z,17.37
2017-06-23T19:12:33.198Z,18.87
2017-06-23T19:15:01.027Z,19.63
2017-06-23T19:17:28.555Z,20.77
2017-06-23T19:19:56.078Z,20.10
2017-06-23T19:22:23.890Z,19.67
2017-06-23T19:24:51.447Z,21.10
2017-06-23T19:27:19.060Z,20.77
2017-06-23T19:29:47.094Z,20.70
2017-06-23T19:32:14.620Z,19.10
2017-06-23T19:34:42.159Z,18.67
2017-06-23T19:37:10.019Z,19.40
2017-06-23T19:39:37.523Z,21.20
2017-06-23T19:42:05.048Z,17.43
2017-06-23T19:44:32.933Z,19.73
2017-06-23T19:47:00.471Z,17.83
2017-06-23T19:49:28.002Z,17.90
2017-06-23T19:51:55.939Z,19.23
2017-06-23T19:54:23.482Z,18.90
2017-06-23T19:56:51.032Z,18.67
2017-06-23T19:59:18.978Z,20.80
2017-06-23T20:01:47.266Z,20.13
2017-06-23T20:04:14.791Z,20.63
2017-06-23T20:06:42.621Z,19.67
2017-06-23T20:09:10.210Z,21.97
2017-06-23T20:17:27.029Z,19.20
2017-06-23T20:19:58.027Z,22.87
2017-06-23T20:22:29.132Z,22.83
2017-06-23T20:25:00.278Z,22.27
2017-06-23T20:27:35.475Z,20.20
2017-06-23T20:33:06.201Z,19.17
2017-06-23T20:35:44.314Z,20.03
2017-06-23T20:41:08.462Z,20.33
2017-06-23T20:43:43.860Z,20.47
2017-06-23T20:46:22.202Z,22.80
2017-06-23T20:48:57.083Z,24.00
2017-06-23T20:51:27.821Z,26.07
2017-06-23T20:53:58.702Z,27.10
2017-06-23T20:56:32.951Z,28.37
2017-06-23T20:59:10.875Z,31.13
2017-06-23T21:01:49.295Z,29.40
2017-06-23T21:04:27.191Z,28.60
2017-06-23T21:07:05.677Z,27.37
2017-06-23T21:09:43.233Z,31.70
2017-06-23T21:12:14.542Z,28.90
2017-06-23T21:14:51.891Z,33.93
2017-06-23T21:17:32.024Z,31.77
2017-06-23T21:20:06.826Z,30.37
2017-06-23T21:22:37.653Z,26.53
2017-06-23T21:25:13.165Z,28.87
2017-06-23T21:27:42.556Z,26.47
2017-06-23T21:30:19.781Z,24.00
2017-06-23T21:32:54.916Z,28.53
2017-06-23T21:35:30.841Z,29.03
2017-06-23T21:38:06.128Z,25.40
2017-06-23T21:40:49.078Z,28.40
2017-06-23T21:43:20.204Z,29.10
2017-06-23T21:45:55.340Z,28.77
2017-06-23T21:48:28.961Z,28.00
2017-06-23T21:50:59.670Z,28.03
2017-06-23T21:53:37.659Z,26.37
2017-06-23T21:56:15.763Z,25.67
2017-06-23T21:58:51.011Z,25.20
2017-06-23T22:01:31.573Z,24.93
2017-06-23T22:04:07.009Z,25.70
2017-06-23T22:06:41.953Z,27.50
2017-06-23T22:09:20.286Z,28.60
2017-06-23T22:11:50.937Z,28.47
2017-06-23T22:14:22.267Z,29.63
2017-06-23T22:16:57.899Z,31.13
2017-06-23T22:19:38.646Z,31.57
2017-06-23T22:22:09.761Z,31.80
2017-06-23T22:24:50.315Z,30.83
2017-06-23T22:27:24.336Z,32.63
2017-06-23T22:30:00.360Z,30.97
2017-06-23T22:32:31.596Z,32.37
2017-06-23T22:35:09.425Z,33.53
2017-06-23T22:37:40.296Z,34.60
2017-06-23T22:40:15.601Z,36.80
2017-06-23T22:42:52.935Z,35.80
2017-06-23T22:45:30.409Z,35.40
2017-06-23T22:48:05.717Z,37.10
2017-06-23T22:50:37.395Z,34.47
2017-06-23T22:53:14.879Z,34.40
2017-06-23T22:55:44.206Z,29.63
2017-06-23T22:58:17.477Z,25.40
2017-06-23T23:00:53.289Z,24.23
2017-06-23T23:03:31.222Z,22.17
2017-06-23T23:06:05.564Z,23.50
2017-06-23T23:08:36.400Z,22.63
2017-06-23T23:11:07.707Z,23.27
2017-06-23T23:13:43.264Z,22.70
2017-06-23T23:16:15.003Z,22.77
2017-06-23T23:18:48.363Z,21.10
2017-06-23T23:21:22.435Z,23.63
2017-06-23T23:24:09.009Z,21.43
2017-06-23T23:26:40.111Z,22.37
2017-06-23T23:29:10.745Z,21.33
2017-06-23T23:31:41.869Z,27.87
2017-06-23T23:34:15.232Z,23.90
2017-06-23T23:36:46.745Z,27.30
2017-06-23T23:39:20.007Z,26.50
2017-06-23T23:41:53.846Z,27.00
2017-06-23T23:44:27.185Z,26.80
2017-06-23T23:47:01.275Z,28.40
2017-06-23T23:49:36.937Z,26.80
2017-06-23T23:52:26.398Z,22.53
2017-06-23T23:54:56.932Z,22.53
